Suehiro Maru No.8 — JK5423 — position and weather

sailwx.info

Track history (hours):
 
Tides and Currents Weather Stations Pressure Air Temp Water Temp Dewpoint Dewpoint Depression Visibility Wind Speed Wind Dir Waves Ship Positions

Suehiro Maru No.8

Last reported at 2016-Jun-28 14:20 UTC. Time now 2016-Jul-01 20:51 UTC.
Position N 34°30' E 138°32'.

Length 88 m; draft 3.4 m.

Type: Cargo ship. MMSI: 431400446.

Date/timePositionNaut miles runAvg speedWind from/ knotsBaromVisibWave heightAir tempDewpointWater temp
2016-Jun-28 14:20N 34°30' E 138°32'5611.3
2016-Jun-28 09:21N 35°01' E 139°30'911.8
2016-Jun-28 08:33N 35°07' E 139°39'1111.4
2016-Jun-28 07:33N 35°17' E 139°45'1110.7
2016-Jun-28 06:33N 35°28' E 139°48'10 4.9
2016-Jun-28 04:33N 35°37' E 139°49'0 0.0
2016-Jun-28 03:33N 35°37' E 139°49'0 0.0
2016-Jun-28 02:33N 35°37' E 139°49'0 0.0
2016-Jun-28 01:33N 35°37' E 139°49'0 0.0
2016-Jun-28 00:33N 35°37' E 139°49'0 0.0
2016-Jun-27 23:33N 35°37' E 139°49'0 0.0
2016-Jun-27 22:33N 35°37' E 139°49'2 1.7
2016-Jun-27 21:33N 35°36' E 139°50'2 2.1
2016-Jun-27 20:33N 35°35' E 139°52'0 0.0
2016-Jun-27 19:33N 35°35' E 139°52'0 0.1
2016-Jun-27 18:33N 35°35' E 139°52'0 0.0
2016-Jun-27 17:33N 35°35' E 139°52'1 0.6
2016-Jun-27 16:33N 35°34' E 139°52'1212.1
2016-Jun-27 15:33N 35°23' E 139°46'1211.6
2016-Jun-27 14:33N 35°11' E 139°47'1312.9
2016-Jun-27 13:33N 35°01' E 139°38'1413.3
2016-Jun-27 12:28N 34°52' E 139°24'23511.2
2016-Jun-26 15:33N 34°07' E 134°45'  
2016-Jun-23 22:11N 34°08' E 134°46'912.0
2016-Jun-23 21:25N 34°01' E 134°53'1212.0
2016-Jun-23 20:25N 33°52' E 135°02'  
2016-Jun-18 22:33N 34°02' E 135°02'1211.9
2016-Jun-18 21:33N 34°14' E 135°05'1 1.5
2016-Jun-18 20:33N 34°15' E 135°07'0 0.0
2016-Jun-18 19:33N 34°15' E 135°07'0 0.0
2016-Jun-18 18:33N 34°15' E 135°07'0 0.0
2016-Jun-18 17:34N 34°15' E 135°07'0 0.0
2016-Jun-18 16:33N 34°15' E 135°07'0 0.0
2016-Jun-18 15:33N 34°15' E 135°07'0 0.0
2016-Jun-18 14:33N 34°15' E 135°07'  
Track history (hours):
 
Tides and Currents Weather Stations Pressure Air Temp Water Temp Dewpoint Dewpoint Depression Visibility Wind Speed Wind Dir Waves Ship Positions

Suehiro Maru No.8

Last reported at 2016-Jun-28 14:20 UTC. Time now 2016-Jul-01 20:51 UTC.
Position N 34°30' E 138°32'.

Length 88 m; draft 3.4 m.

Type: Cargo ship. MMSI: 431400446.

Date/timePositionNaut miles runAvg speedWind from/ knotsBaromVisibWave heightAir tempDewpointWater temp
2016-Jun-28 14:20N 34°30' E 138°32'5611.3
2016-Jun-28 09:21N 35°01' E 139°30'911.8
2016-Jun-28 08:33N 35°07' E 139°39'1111.4
2016-Jun-28 07:33N 35°17' E 139°45'1110.7
2016-Jun-28 06:33N 35°28' E 139°48'10 4.9
2016-Jun-28 04:33N 35°37' E 139°49'0 0.0
2016-Jun-28 03:33N 35°37' E 139°49'0 0.0
2016-Jun-28 02:33N 35°37' E 139°49'0 0.0
2016-Jun-28 01:33N 35°37' E 139°49'0 0.0
2016-Jun-28 00:33N 35°37' E 139°49'0 0.0
2016-Jun-27 23:33N 35°37' E 139°49'0 0.0
2016-Jun-27 22:33N 35°37' E 139°49'2 1.7
2016-Jun-27 21:33N 35°36' E 139°50'2 2.1
2016-Jun-27 20:33N 35°35' E 139°52'0 0.0
2016-Jun-27 19:33N 35°35' E 139°52'0 0.1
2016-Jun-27 18:33N 35°35' E 139°52'0 0.0
2016-Jun-27 17:33N 35°35' E 139°52'1 0.6
2016-Jun-27 16:33N 35°34' E 139°52'1212.1
2016-Jun-27 15:33N 35°23' E 139°46'1211.6
2016-Jun-27 14:33N 35°11' E 139°47'1312.9
2016-Jun-27 13:33N 35°01' E 139°38'1413.3
2016-Jun-27 12:28N 34°52' E 139°24'23511.2
2016-Jun-26 15:33N 34°07' E 134°45'  
2016-Jun-23 22:11N 34°08' E 134°46'912.0
2016-Jun-23 21:25N 34°01' E 134°53'1212.0
2016-Jun-23 20:25N 33°52' E 135°02'  
2016-Jun-18 22:33N 34°02' E 135°02'1211.9
2016-Jun-18 21:33N 34°14' E 135°05'1 1.5
2016-Jun-18 20:33N 34°15' E 135°07'0 0.0
2016-Jun-18 19:33N 34°15' E 135°07'0 0.0
2016-Jun-18 18:33N 34°15' E 135°07'0 0.0
2016-Jun-18 17:34N 34°15' E 135°07'0 0.0
2016-Jun-18 16:33N 34°15' E 135°07'0 0.0
2016-Jun-18 15:33N 34°15' E 135°07'0 0.0
2016-Jun-18 14:33N 34°15' E 135°07'  

Dump ship's entire track history